KUIL/UIL METAR and TAF weather

Enter ICAO airport designator
Station Type Date Time Source
KUIL METAR 2020/09/22 23:53 UTC NOAA

KUIL 222353Z AUTO VRB06KT 10SM FEW042 BKN075 16/12 A2997 RMK AO2 SLP149 T01560122 10194 20156 58006


Station Type Date Time Source
KUIL Decoded METAR 2020/09/22 23:53 UTC NOAA

QUILLAYUTE STATE AIRPORT, WA, United States (KUIL) 47-56N 124-34W 54M
Sep 22, 2020 - 07:53 PM EDT / 2020.09.22 2353 UTC
Wind: Variable at 7 MPH (6 KT):0
Visibility: 10 mile(s):0
Sky conditions: mostly cloudy
Temperature: 60.1 F (15.6 C)
Dew Point: 54.0 F (12.2 C)
Relative Humidity: 80%
Pressure (altimeter): 29.97 in. Hg (1014 hPa)
Pressure tendency: 0.02 inches (0.6 hPa) lower than three hours ago
ob: KUIL 222353Z AUTO VRB06KT 10SM FEW042 BKN075 16/12 A2997 RMK AO2 SLP149 T01560122 10194 20156 58006
cycle: 0

Station Type Date Time Source
KUIL TAF UTC NOAA

Error!

Example: see airport list